Airfield :
LOGIN :

Register | Disclaimer

   EN    FR    IT 

 










Legend :    VFR   Marginal VFR   IFR   Intensive IFR   Very Intensive IFR
Visi :
Ceiling :
>= 8 km
>= 3000ft
5 to 8 km
1000 to 3000 ft
1500m to 5 km
500 to 1000 ft
800 to 1500m
200 to 500 ft
< 800m
< 200 ft
Symbols :   Thunderstorms  Fog  Heavy snow  Heavy precipitations  Wind > 20 kt
SIGMETs :     Misc.  Thunderstorms  Icing  Turbulence  Mountain Waves  Volcanic Ashes






- Airport Elevation : 17 ft
- IATA code : GRQ


EHGG - Groningen Eelde

CURRENT METAR :
  • 200355Z AUTO 31009KT 280V350 9999 -RA FEW013 FEW015CB SCT018 BKN025 06/04 Q1016

EXPIRED METARs :
  • 200325Z AUTO 31008KT 280V340 9999 DZ FEW025 BKN031 OVC036 06/03 Q1015
  • 200255Z AUTO 30005KT 270V330 9999 FEW015CB SCT020 BKN041 05/03 Q1015
  • 200225Z AUTO 30004KT 9999 FEW015CB OVC038 05/03 Q1015
  • 200155Z AUTO 30004KT 9999 FEW021 BKN045 06/03 Q1014
  • 200125Z AUTO 33004KT 290V010 9999 BKN038 OVC043 06/03 Q1014
  • 200055Z AUTO 32005KT 280V350 9999 BKN034 BKN040 BKN046 06/03 Q1014
  • 200025Z AUTO 33005KT 290V010 9999 NSC 06/03 Q1014
  • 192355Z AUTO 35008KT 300V030 9999 NSC 07/03 Q1013
  • 192325Z AUTO 35008KT 300V040 9999 FEW043 BKN048 07/03 Q1013

TAF TAF EHGG
Valid from the 20 at 00:00 until the 21 at 06:00 UTC


192317Z 2000/2106 32010KT 9999 BKN030
TEMPO 2007/2018 35015G25KT 7000 -SHRA RA FEW018TCU BKN020
BECMG 2100/2103 03005KT



MET'MAP, your aeronautical weather chart ! - Copyright ORBIFLY December 2007 - Disclaimer

ORBIFLY MET'MAP TEAM :

Programming & Development : Alexandra Zaïnal
Original concept : Baudouin d'Aumeries
Technical & hardware support : Manuel Goepfert
Assistance : Marc-Olivier Méhu




SOURCES & CREDITS :

   NOAA